Time;durP1;ratioP1;P1;durP2;ratioP2;P2;SDS_P1;SDS_P2;PMS_P1;PMS_P2;Temp;Humidity;BMP_temperature;BMP_pressure;BME280_temperature;BME280_humidity;BME280_pressure;Samples;Min_cycle;Max_cycle;Signal;HPM_P1;HPM_P2
2021/03/11 00:01:57;;;;;;;;;;;17.90;50.00;;;;;;4910716;29;19938;-83
2021/03/11 00:04:24;;;;;;;;;;;17.90;50.10;;;;;;4912471;29;19931;-81
2021/03/11 00:06:50;;;;;;;;;;;17.90;50.10;;;;;;4913660;29;19927;-82
2021/03/11 00:09:16;;;;;;;;;;;17.90;50.00;;;;;;4909727;29;19935;-83
2021/03/11 00:11:42;;;;;;;;;;;17.90;49.90;;;;;;4914501;29;19927;-83
2021/03/11 00:14:08;;;;;;;;;;;17.90;50.00;;;;;;4908543;29;19931;-83
2021/03/11 00:16:34;;;;;;;;;;;17.90;50.00;;;;;;4915579;29;19932;-84
2021/03/11 00:19:01;;;;;;;;;;;17.90;50.00;;;;;;4892514;29;19927;-84
2021/03/11 00:21:27;;;;;;;;;;;17.90;50.10;;;;;;4913433;29;19928;-84
2021/03/11 00:23:53;;;;;;;;;;;17.90;50.10;;;;;;4908326;29;20012;-84
2021/03/11 00:26:19;;;;;;;;;;;17.90;50.10;;;;;;4913347;29;19927;-85
2021/03/11 00:28:45;;;;;;;;;;;17.80;50.10;;;;;;4908922;29;20376;-84
2021/03/11 00:31:12;;;;;;;;;;;17.90;50.20;;;;;;4914373;29;19935;-85
2021/03/11 00:33:38;;;;;;;;;;;17.80;50.10;;;;;;4908999;29;20026;-85
2021/03/11 00:36:04;;;;;;;;;;;17.80;50.10;;;;;;4914450;29;19939;-85
2021/03/11 00:38:31;;;;;;;;;;;17.80;50.20;;;;;;4907594;29;20404;-86
2021/03/11 00:40:57;;;;;;;;;;;17.80;50.20;;;;;;4914012;28;19922;-84
2021/03/11 00:43:23;;;;;;;;;;;17.80;50.20;;;;;;4912764;29;19935;-84
2021/03/11 00:45:49;;;;;;;;;;;17.80;50.20;;;;;;4908084;29;19938;-85
2021/03/11 00:48:16;;;;;;;;;;;17.80;50.30;;;;;;4911856;29;19931;-84
2021/03/11 00:50:42;;;;;;;;;;;17.80;50.30;;;;;;4908603;29;19931;-85
2021/03/11 00:53:08;;;;;;;;;;;17.80;50.20;;;;;;4912485;29;19927;-81
2021/03/11 00:55:34;;;;;;;;;;;17.80;50.30;;;;;;4910574;29;19927;-83
2021/03/11 00:58:00;;;;;;;;;;;17.80;50.20;;;;;;4913208;29;19927;-84
2021/03/11 01:00:27;;;;;;;;;;;17.80;50.30;;;;;;4908663;29;19923;-84
2021/03/11 01:02:53;;;;;;;;;;;17.70;50.10;;;;;;4912267;29;19927;-83
2021/03/11 01:05:23;;;;;;;;;;;17.80;50.20;;;;;;4907212;29;19959;-83
2021/03/11 01:07:49;;;;;;;;;;;17.70;50.20;;;;;;4911366;29;19927;-84
2021/03/11 01:10:16;;;;;;;;;;;17.80;50.30;;;;;;4907557;29;19927;-83
2021/03/11 01:12:42;;;;;;;;;;;17.70;50.30;;;;;;4911637;29;19927;-83
2021/03/11 01:15:08;;;;;;;;;;;17.70;50.30;;;;;;4908798;29;20359;-83
2021/03/11 01:17:35;;;;;;;;;;;17.70;50.30;;;;;;4911913;29;19927;-83
2021/03/11 01:20:04;;;;;;;;;;;17.70;50.30;;;;;;4908856;29;19934;-84
2021/03/11 01:22:31;;;;;;;;;;;17.70;50.40;;;;;;4912520;29;19977;-84
2021/03/11 01:24:57;;;;;;;;;;;17.70;50.90;;;;;;4913345;29;20391;-85
2021/03/11 01:27:23;;;;;;;;;;;17.70;50.20;;;;;;4905838;29;20277;-84
2021/03/11 01:29:49;;;;;;;;;;;17.70;50.20;;;;;;4913495;29;19927;-84
2021/03/11 01:32:16;;;;;;;;;;;17.70;50.30;;;;;;4907386;29;19951;-83
2021/03/11 01:34:42;;;;;;;;;;;17.70;50.20;;;;;;4912889;29;19927;-84
2021/03/11 01:37:08;;;;;;;;;;;17.70;50.30;;;;;;4907522;29;20380;-82
2021/03/11 01:39:34;;;;;;;;;;;17.70;50.40;;;;;;4914570;29;19950;-84
2021/03/11 01:42:01;;;;;;;;;;;17.70;50.30;;;;;;4906101;29;19923;-84
2021/03/11 01:44:27;;;;;;;;;;;17.60;50.20;;;;;;4898049;29;19961;-83
2021/03/11 01:46:53;;;;;;;;;;;17.60;50.30;;;;;;4906800;29;19934;-83
2021/03/11 01:49:20;;;;;;;;;;;17.70;50.30;;;;;;4912905;29;19983;-83
2021/03/11 01:51:46;;;;;;;;;;;17.60;50.10;;;;;;4908153;29;20018;-83
2021/03/11 01:54:13;;;;;;;;;;;17.60;50.30;;;;;;4912426;29;20454;-84
2021/03/11 01:56:40;;;;;;;;;;;17.60;50.30;;;;;;4907598;29;22497;-84
2021/03/11 01:59:07;;;;;;;;;;;17.60;50.30;;;;;;4914683;29;19927;-84
2021/03/11 02:01:33;;;;;;;;;;;17.60;50.30;;;;;;4910451;29;19931;-83
2021/03/11 02:03:59;;;;;;;;;;;17.60;50.30;;;;;;4908185;29;20322;-84
2021/03/11 02:06:25;;;;;;;;;;;17.60;50.30;;;;;;4911794;29;19934;-83
2021/03/11 02:08:51;;;;;;;;;;;17.60;50.30;;;;;;4906725;29;19927;-84
2021/03/11 02:11:21;;;;;;;;;;;17.60;50.20;;;;;;4910944;29;19934;-84
2021/03/11 02:13:59;;;;;;;;;;;17.60;50.40;;;;;;4904741;29;19933;-84
2021/03/11 02:16:44;;;;;;;;;;;17.60;50.40;;;;;;4912704;29;19934;-85
2021/03/11 02:19:27;;;;;;;;;;;17.60;50.30;;;;;;4906136;29;20657;-82
2021/03/11 02:22:19;;;;;;;;;;;17.60;50.50;;;;;;4910765;29;19931;-82
2021/03/11 02:25:11;;;;;;;;;;;17.60;50.50;;;;;;4883575;29;19939;-83
2021/03/11 02:27:41;;;;;;;;;;;17.60;50.50;;;;;;4907490;29;20364;-83
2021/03/11 02:30:08;;;;;;;;;;;17.60;50.50;;;;;;4910212;29;20565;-83
2021/03/11 02:32:35;;;;;;;;;;;17.60;50.40;;;;;;4910875;29;20701;-83
2021/03/11 02:35:02;;;;;;;;;;;17.60;50.50;;;;;;4905038;29;20015;-82
2021/03/11 02:37:32;;;;;;;;;;;17.60;50.50;;;;;;4909165;29;19935;-82
2021/03/11 02:40:01;;;;;;;;;;;17.60;50.50;;;;;;4905990;29;19937;-82
2021/03/11 02:42:28;;;;;;;;;;;17.50;50.30;;;;;;4911620;29;19927;-83
2021/03/11 02:44:54;;;;;;;;;;;17.50;50.50;;;;;;4906325;29;19942;-88
2021/03/11 02:47:21;;;;;;;;;;;17.50;50.60;;;;;;4898475;29;19927;-85
2021/03/11 02:49:48;;;;;;;;;;;17.50;50.50;;;;;;4891625;29;19927;-84
2021/03/11 02:52:15;;;;;;;;;;;17.60;50.70;;;;;;4911700;29;19923;-84
2021/03/11 02:54:43;;;;;;;;;;;17.50;50.60;;;;;;4906376;29;19934;-82
2021/03/11 02:57:10;;;;;;;;;;;17.60;50.70;;;;;;4895893;29;20292;-82
2021/03/11 02:59:42;;;;;;;;;;;17.50;50.70;;;;;;4905849;29;19935;-83
2021/03/11 03:02:08;;;;;;;;;;;17.50;50.70;;;;;;4925048;28;20383;-82
2021/03/11 03:04:35;;;;;;;;;;;17.60;50.80;;;;;;4905901;29;21570;-82
2021/03/11 03:07:02;;;;;;;;;;;17.50;50.70;;;;;;4910443;29;19934;-84
2021/03/11 03:09:28;;;;;;;;;;;17.50;50.70;;;;;;4907002;29;20946;-83
2021/03/11 03:11:55;;;;;;;;;;;17.50;50.90;;;;;;4910417;29;19938;-83
2021/03/11 03:14:22;;;;;;;;;;;17.50;50.80;;;;;;4911414;29;19927;-83
2021/03/11 03:16:49;;;;;;;;;;;17.50;50.90;;;;;;4908728;29;19927;-83
2021/03/11 03:19:16;;;;;;;;;;;17.50;50.80;;;;;;4912444;29;20380;-83
2021/03/11 03:21:45;;;;;;;;;;;17.50;50.90;;;;;;4903956;29;20312;-83
2021/03/11 03:24:12;;;;;;;;;;;17.50;50.80;;;;;;4911195;29;19927;-83
2021/03/11 03:26:38;;;;;;;;;;;17.50;50.80;;;;;;4906734;29;19942;-80
2021/03/11 03:29:05;;;;;;;;;;;17.50;50.90;;;;;;4912690;29;20994;-83
2021/03/11 03:31:32;;;;;;;;;;;17.50;50.90;;;;;;4906164;29;19927;-83
2021/03/11 03:33:58;;;;;;;;;;;17.50;50.90;;;;;;4895181;29;19931;-82
2021/03/11 03:36:25;;;;;;;;;;;17.50;50.80;;;;;;4905955;29;19934;-82
2021/03/11 03:38:52;;;;;;;;;;;17.50;50.80;;;;;;4911470;28;19935;-83
2021/03/11 03:41:19;;;;;;;;;;;17.40;50.80;;;;;;4905712;29;19927;-83
2021/03/11 03:43:45;;;;;;;;;;;17.40;50.90;;;;;;4910542;29;19931;-83
2021/03/11 03:46:13;;;;;;;;;;;17.40;50.90;;;;;;4905703;29;19927;-84
2021/03/11 03:48:46;;;;;;;;;;;17.50;50.90;;;;;;4915457;29;19927;-84
2021/03/11 03:51:13;;;;;;;;;;;17.40;50.90;;;;;;4894799;29;20592;-84
2021/03/11 03:53:42;;;;;;;;;;;17.50;51.00;;;;;;4913605;29;19942;-82
2021/03/11 03:56:13;;;;;;;;;;;17.40;51.00;;;;;;4893372;29;19999;-84
2021/03/11 03:58:41;;;;;;;;;;;17.50;51.10;;;;;;4897495;29;19962;-84
2021/03/11 04:01:07;;;;;;;;;;;17.50;51.10;;;;;;4913296;29;19935;-83
2021/03/11 04:03:34;;;;;;;;;;;17.50;51.10;;;;;;4910310;29;19960;-84
2021/03/11 04:06:01;;;;;;;;;;;17.40;51.10;;;;;;4912886;29;19931;-83
2021/03/11 04:08:28;;;;;;;;;;;17.50;51.20;;;;;;4908592;29;20273;-83
2021/03/11 04:10:54;;;;;;;;;;;17.40;51.10;;;;;;4912258;29;20297;-83
2021/03/11 04:13:21;;;;;;;;;;;17.50;51.30;;;;;;4907547;29;19946;-83
2021/03/11 04:15:48;;;;;;;;;;;17.40;51.10;;;;;;4897477;29;20319;-83
2021/03/11 04:18:14;;;;;;;;;;;17.40;51.30;;;;;;4910461;29;19927;-83
2021/03/11 04:20:42;;;;;;;;;;;17.50;51.30;;;;;;4912783;29;19927;-83
2021/03/11 04:23:08;;;;;;;;;;;17.50;51.30;;;;;;4908021;29;19935;-83
2021/03/11 04:25:34;;;;;;;;;;;17.40;51.90;;;;;;4912997;29;20261;-84
2021/03/11 04:28:01;;;;;;;;;;;17.40;51.20;;;;;;4906324;29;20343;-83
2021/03/11 04:30:27;;;;;;;;;;;17.50;51.40;;;;;;4912808;29;19940;-83
2021/03/11 04:32:54;;;;;;;;;;;17.50;51.30;;;;;;4909607;29;19935;-84
2021/03/11 04:35:21;;;;;;;;;;;17.40;51.20;;;;;;4914787;29;19927;-84
2021/03/11 04:37:47;;;;;;;;;;;17.40;51.30;;;;;;4907976;29;19942;-83
2021/03/11 04:40:14;;;;;;;;;;;17.40;51.40;;;;;;4914048;29;19942;-84
2021/03/11 04:42:40;;;;;;;;;;;17.40;51.50;;;;;;4914720;29;19958;-82
2021/03/11 04:45:07;;;;;;;;;;;17.40;51.30;;;;;;4908056;29;19934;-83
2021/03/11 04:47:35;;;;;;;;;;;17.40;51.40;;;;;;4914618;29;19935;-83
2021/03/11 04:50:02;;;;;;;;;;;17.40;51.90;;;;;;4908912;29;19942;-83
2021/03/11 04:52:29;;;;;;;;;;;17.40;51.40;;;;;;4913479;29;19927;-84
2021/03/11 04:54:55;;;;;;;;;;;17.40;51.50;;;;;;4909950;29;19934;-83
2021/03/11 04:57:21;;;;;;;;;;;17.40;51.40;;;;;;4913667;29;20276;-84
2021/03/11 04:59:48;;;;;;;;;;;17.40;51.50;;;;;;4906800;29;20289;-83
2021/03/11 05:02:15;;;;;;;;;;;17.40;51.50;;;;;;4914086;29;19934;-83
2021/03/11 05:04:42;;;;;;;;;;;17.40;51.50;;;;;;4925267;29;19926;-82
2021/03/11 05:07:09;;;;;;;;;;;17.30;51.40;;;;;;4914019;29;19931;-82
2021/03/11 05:09:35;;;;;;;;;;;17.40;51.50;;;;;;4906838;29;20313;-83
2021/03/11 05:12:02;;;;;;;;;;;17.40;51.50;;;;;;4912281;29;19927;-83
2021/03/11 05:14:28;;;;;;;;;;;17.40;51.60;;;;;;4909454;29;20387;-83
2021/03/11 05:16:54;;;;;;;;;;;17.40;51.60;;;;;;4913966;29;19928;-82
2021/03/11 05:19:21;;;;;;;;;;;17.30;51.60;;;;;;4906421;29;19927;-82
2021/03/11 05:21:47;;;;;;;;;;;17.30;51.50;;;;;;4911427;29;19937;-83
2021/03/11 05:24:13;;;;;;;;;;;17.40;51.60;;;;;;4912155;29;20064;-82
2021/03/11 05:26:39;;;;;;;;;;;17.40;51.60;;;;;;4908791;29;19934;-80
2021/03/11 05:29:09;;;;;;;;;;;17.30;51.60;;;;;;4926864;29;19966;-81
2021/03/11 05:31:36;;;;;;;;;;;17.40;51.60;;;;;;4908255;29;19962;-83
2021/03/11 05:34:02;;;;;;;;;;;17.30;51.50;;;;;;4911085;29;19927;-83
2021/03/11 05:36:28;;;;;;;;;;;17.30;51.60;;;;;;4893697;29;19931;-83
2021/03/11 05:38:55;;;;;;;;;;;17.40;51.60;;;;;;4912842;29;19954;-82
2021/03/11 05:41:22;;;;;;;;;;;17.40;51.70;;;;;;4908387;29;19927;-82
2021/03/11 05:43:50;;;;;;;;;;;17.40;51.70;;;;;;4912098;29;19927;-82
2021/03/11 05:46:17;;;;;;;;;;;17.30;51.70;;;;;;4906254;29;19927;-84
2021/03/11 05:48:44;;;;;;;;;;;17.40;51.70;;;;;;4912886;29;20531;-82
2021/03/11 05:51:11;;;;;;;;;;;17.40;51.70;;;;;;4909884;29;19934;-82
2021/03/11 05:53:38;;;;;;;;;;;17.40;51.70;;;;;;4912474;29;19998;-82
2021/03/11 05:56:05;;;;;;;;;;;17.40;51.80;;;;;;4912027;29;22163;-91
2021/03/11 05:58:31;;;;;;;;;;;17.40;51.80;;;;;;4912362;29;19915;-81
2021/03/11 06:01:00;;;;;;;;;;;17.40;51.70;;;;;;4909327;29;19964;-83
2021/03/11 06:03:29;;;;;;;;;;;17.40;51.80;;;;;;4911802;29;19972;-82
2021/03/11 06:05:57;;;;;;;;;;;17.40;51.80;;;;;;4916480;29;19928;-89
2021/03/11 06:08:24;;;;;;;;;;;17.40;51.90;;;;;;4892677;29;20541;-85
2021/03/11 06:10:57;;;;;;;;;;;17.40;51.80;;;;;;4914255;29;19931;-81
2021/03/11 06:13:24;;;;;;;;;;;17.30;51.80;;;;;;4891575;29;19927;-82
2021/03/11 06:16:00;;;;;;;;;;;17.40;51.70;;;;;;4914010;29;19937;-82
2021/03/11 06:18:30;;;;;;;;;;;17.40;51.90;;;;;;4903660;29;19935;-81
2021/03/11 06:20:58;;;;;;;;;;;17.30;51.80;;;;;;4911883;29;19933;-85
2021/03/11 06:23:24;;;;;;;;;;;17.40;51.90;;;;;;4902132;29;19934;-81
2021/03/11 06:25:53;;;;;;;;;;;17.40;52.30;;;;;;4911454;29;19938;-81
2021/03/11 06:28:39;;;;;;;;;;;17.40;52.10;;;;;;4903119;29;19951;-81
2021/03/11 06:31:24;;;;;;;;;;;17.40;52.00;;;;;;4909750;29;20498;-84
2021/03/11 06:33:52;;;;;;;;;;;17.40;52.00;;;;;;4892536;29;19958;-82
2021/03/11 06:36:19;;;;;;;;;;;17.40;52.00;;;;;;4911176;29;19935;-82
2021/03/11 06:38:46;;;;;;;;;;;17.40;51.90;;;;;;4905040;29;19935;-81
2021/03/11 06:41:12;;;;;;;;;;;17.40;51.90;;;;;;4911915;29;19927;-82
2021/03/11 06:43:51;;;;;;;;;;;17.40;52.00;;;;;;4907478;29;20363;-84
2021/03/11 06:46:17;;;;;;;;;;;17.40;52.00;;;;;;4898092;29;20429;-81
2021/03/11 06:48:45;;;;;;;;;;;17.40;52.90;;;;;;4905590;29;19928;-82
2021/03/11 06:51:16;;;;;;;;;;;17.40;52.40;;;;;;4911710;29;19931;-81
2021/03/11 06:53:54;;;;;;;;;;;17.40;52.50;;;;;;4899065;29;19930;-80
2021/03/11 06:56:22;;;;;;;;;;;17.30;52.60;;;;;;4910268;29;19928;-81
2021/03/11 06:59:05;;;;;;;;;;;17.40;52.60;;;;;;4905472;29;19927;-81
2021/03/11 07:01:35;;;;;;;;;;;17.40;52.60;;;;;;4910458;29;19927;-82
2021/03/11 07:04:02;;;;;;;;;;;17.30;52.50;;;;;;4903671;29;20057;-81
2021/03/11 07:06:35;;;;;;;;;;;17.40;52.70;;;;;;4910293;29;19927;-82
2021/03/11 07:09:03;;;;;;;;;;;17.30;52.50;;;;;;4905991;29;20764;-81
2021/03/11 07:11:29;;;;;;;;;;;17.40;52.50;;;;;;4908687;29;19927;-81
2021/03/11 07:13:57;;;;;;;;;;;17.40;52.60;;;;;;4906190;29;20291;-82
2021/03/11 07:16:24;;;;;;;;;;;17.40;52.50;;;;;;4911391;29;19943;-85
2021/03/11 07:19:11;;;;;;;;;;;17.40;52.50;;;;;;4909120;29;19927;-79
2021/03/11 07:21:38;;;;;;;;;;;17.40;52.40;;;;;;4907921;29;21583;-81
2021/03/11 07:24:04;;;;;;;;;;;17.40;52.90;;;;;;4911174;29;19946;-82
2021/03/11 07:26:31;;;;;;;;;;;17.40;54.00;;;;;;4905336;29;20003;-83
2021/03/11 07:29:15;;;;;;;;;;;17.40;54.90;;;;;;4910386;29;19994;-84
2021/03/11 07:31:41;;;;;;;;;;;17.50;54.50;;;;;;4922537;29;20208;-84
2021/03/11 07:34:09;;;;;;;;;;;17.70;54.50;;;;;;4909199;29;19927;-83
2021/03/11 07:36:35;;;;;;;;;;;17.80;54.10;;;;;;4908191;29;20390;-87
2021/03/11 07:39:01;;;;;;;;;;;17.80;54.30;;;;;;4894851;29;20347;-87
2021/03/11 07:41:28;;;;;;;;;;;17.90;53.80;;;;;;4899693;29;19934;-88
2021/03/11 07:43:55;;;;;;;;;;;18.00;53.70;;;;;;4930103;29;19927;-85
2021/03/11 07:46:21;;;;;;;;;;;18.00;53.50;;;;;;4896265;29;19927;-86
2021/03/11 07:48:48;;;;;;;;;;;18.10;53.40;;;;;;4897594;29;19935;-86
2021/03/11 07:51:15;;;;;;;;;;;18.20;53.10;;;;;;4895025;29;19919;-84
2021/03/11 07:53:41;;;;;;;;;;;18.20;53.40;;;;;;4896194;29;19946;-83
2021/03/11 07:56:08;;;;;;;;;;;18.20;53.00;;;;;;4903434;29;19931;-86
2021/03/11 07:58:41;;;;;;;;;;;18.30;52.80;;;;;;4910520;29;20050;-85
2021/03/11 08:01:08;;;;;;;;;;;18.30;52.70;;;;;;4904495;29;19935;-85
2021/03/11 08:03:36;;;;;;;;;;;18.30;52.40;;;;;;4908995;29;20861;-84
2021/03/11 08:06:22;;;;;;;;;;;18.30;52.30;;;;;;4905653;29;19983;-87
2021/03/11 08:08:48;;;;;;;;;;;18.30;54.10;;;;;;4885549;29;20243;-86
2021/03/11 08:11:31;;;;;;;;;;;18.50;53.40;;;;;;4923411;28;19982;-90
2021/03/11 08:14:18;;;;;;;;;;;18.70;52.70;;;;;;4898895;29;19931;-92
2021/03/11 08:16:44;;;;;;;;;;;19.60;50.40;;;;;;4894129;29;19931;-87
2021/03/11 08:19:31;;;;;;;;;;;20.30;49.00;;;;;;4925505;28;20021;-89
2021/03/11 08:21:57;;;;;;;;;;;20.70;48.20;;;;;;4889359;29;20404;-91
2021/03/11 08:24:39;;;;;;;;;;;21.10;47.40;;;;;;4892726;29;19928;-89
2021/03/11 08:27:26;;;;;;;;;;;21.40;47.00;;;;;;4885165;29;20416;-84
2021/03/11 08:29:58;;;;;;;;;;;21.60;46.50;;;;;;4877893;29;20727;-85
2021/03/11 08:32:43;;;;;;;;;;;21.80;46.00;;;;;;4885323;29;19963;-86
2021/03/11 08:35:28;;;;;;;;;;;22.00;45.90;;;;;;4890797;29;20130;-88
2021/03/11 08:38:14;;;;;;;;;;;22.20;45.70;;;;;;4878320;29;20197;-88
2021/03/11 08:40:44;;;;;;;;;;;22.50;45.20;;;;;;4889966;29;19928;-87
2021/03/11 08:43:10;;;;;;;;;;;22.70;45.00;;;;;;4892490;29;19928;-90
2021/03/11 08:45:37;;;;;;;;;;;22.90;44.70;;;;;;4893246;29;20551;-89
2021/03/11 08:48:14;;;;;;;;;;;23.20;44.40;;;;;;4886251;29;20479;-89
2021/03/11 08:50:42;;;;;;;;;;;23.30;44.20;;;;;;4907618;29;19987;-87
2021/03/11 08:53:08;;;;;;;;;;;23.50;44.00;;;;;;4888430;29;19931;-90
2021/03/11 08:55:36;;;;;;;;;;;23.60;43.90;;;;;;4920610;29;19927;-88
2021/03/11 08:58:03;;;;;;;;;;;23.70;43.70;;;;;;4887174;29;19928;-91
2021/03/11 09:00:48;;;;;;;;;;;23.90;43.40;;;;;;4891428;29;19982;-84
2021/03/11 09:03:33;;;;;;;;;;;24.00;43.10;;;;;;4913780;29;20248;-84
2021/03/11 09:05:59;;;;;;;;;;;24.20;42.80;;;;;;4920309;29;19966;-89
2021/03/11 09:08:26;;;;;;;;;;;24.30;42.70;;;;;;4886680;29;19932;-86
2021/03/11 09:11:05;;;;;;;;;;;24.40;42.60;;;;;;4894057;29;19927;-88
2021/03/11 09:13:31;;;;;;;;;;;24.50;42.60;;;;;;4887373;29;20014;-88
2021/03/11 09:15:58;;;;;;;;;;;24.60;42.40;;;;;;4889776;29;19937;-86
2021/03/11 09:18:25;;;;;;;;;;;24.80;42.50;;;;;;4905072;29;20616;-90
2021/03/11 09:20:54;;;;;;;;;;;24.90;42.20;;;;;;4918129;29;19982;-90
2021/03/11 09:23:31;;;;;;;;;;;25.00;42.00;;;;;;4891072;29;19927;-86
2021/03/11 09:25:57;;;;;;;;;;;25.00;42.00;;;;;;4886145;29;19946;-90
2021/03/11 09:28:24;;;;;;;;;;;25.10;41.80;;;;;;4889842;29;19934;-85
2021/03/11 09:30:51;;;;;;;;;;;25.40;41.20;;;;;;4886456;29;19950;-89
2021/03/11 09:33:20;;;;;;;;;;;25.40;41.10;;;;;;4892158;29;19934;-88
2021/03/11 09:35:47;;;;;;;;;;;25.40;41.30;;;;;;4887930;29;19935;-90
2021/03/11 09:38:20;;;;;;;;;;;25.40;41.10;;;;;;4892847;29;20324;-92
2021/03/11 09:40:48;;;;;;;;;;;25.60;41.70;;;;;;4917490;29;19935;-94
2021/03/11 09:43:28;;;;;;;;;;;25.70;41.10;;;;;;4892126;29;19928;-89
2021/03/11 09:45:56;;;;;;;;;;;25.70;41.00;;;;;;4906898;29;19938;-91
2021/03/11 09:48:50;;;;;;;;;;;25.90;40.90;;;;;;4894649;29;19959;-91
2021/03/11 09:51:21;;;;;;;;;;;24.90;39.10;;;;;;4875872;29;21442;-96
2021/03/11 09:53:48;;;;;;;;;;;24.40;40.60;;;;;;4936793;29;20133;-88
2021/03/11 09:56:22;;;;;;;;;;;25.00;40.90;;;;;;4894927;29;19927;-87
2021/03/11 09:59:15;;;;;;;;;;;25.40;40.80;;;;;;4894505;29;19915;-90
2021/03/11 10:01:43;;;;;;;;;;;25.70;40.70;;;;;;4889093;29;20561;-91
2021/03/11 10:04:13;;;;;;;;;;;25.90;40.50;;;;;;4893153;29;19935;-88
2021/03/11 10:06:50;;;;;;;;;;;26.00;40.70;;;;;;4885118;29;20297;-92
2021/03/11 10:09:17;;;;;;;;;;;26.10;40.50;;;;;;4881342;29;20026;-88
2021/03/11 10:11:44;;;;;;;;;;;26.20;40.60;;;;;;4886241;29;19936;-88
2021/03/11 10:14:21;;;;;;;;;;;26.30;41.00;;;;;;4889361;29;19934;-88
2021/03/11 10:16:48;;;;;;;;;;;26.50;40.50;;;;;;4881143;29;19927;-89
2021/03/11 10:19:22;;;;;;;;;;;26.70;40.00;;;;;;4891470;29;19935;-91
2021/03/11 10:21:50;;;;;;;;;;;26.80;40.20;;;;;;4890347;29;20451;-89
2021/03/11 10:24:29;;;;;;;;;;;26.80;40.30;;;;;;4892196;29;19927;-95
2021/03/11 10:26:58;;;;;;;;;;;26.90;40.50;;;;;;4920577;29;19936;-91
2021/03/11 10:29:32;;;;;;;;;;;27.10;40.10;;;;;;4887732;29;19943;-88
2021/03/11 10:32:03;;;;;;;;;;;27.00;40.30;;;;;;4900883;29;20059;-93
2021/03/11 10:34:45;;;;;;;;;;;27.00;40.50;;;;;;4918116;29;19958;-94
2021/03/11 10:37:13;;;;;;;;;;;27.00;40.40;;;;;;4885195;29;21650;-89
2021/03/11 10:39:58;;;;;;;;;;;27.10;40.50;;;;;;4887049;29;19975;-85
2021/03/11 10:42:27;;;;;;;;;;;27.00;40.70;;;;;;4909298;29;21653;-93
2021/03/11 10:44:58;;;;;;;;;;;26.70;41.80;;;;;;4880052;29;19927;-90
2021/03/11 10:47:27;;;;;;;;;;;26.20;43.20;;;;;;4889732;29;21355;-93
2021/03/11 10:49:54;;;;;;;;;;;25.90;42.80;;;;;;4920205;29;19952;-90
2021/03/11 10:52:21;;;;;;;;;;;25.60;44.50;;;;;;4908829;29;19927;-95
2021/03/11 10:54:47;;;;;;;;;;;25.40;43.90;;;;;;4906961;29;19932;-90
2021/03/11 10:57:17;;;;;;;;;;;25.30;43.60;;;;;;4887829;29;19941;-95
2021/03/11 10:59:46;;;;;;;;;;;25.20;44.40;;;;;;4890225;29;19937;-88
2021/03/11 11:02:13;;;;;;;;;;;25.10;43.70;;;;;;4911089;29;19984;-88
2021/03/11 11:04:41;;;;;;;;;;;25.00;44.00;;;;;;4894288;29;20720;-90
2021/03/11 11:07:07;;;;;;;;;;;24.90;43.30;;;;;;4911986;29;19927;-93
2021/03/11 11:09:34;;;;;;;;;;;23.90;41.10;;;;;;4895261;29;19931;-88
2021/03/11 11:12:01;;;;;;;;;;;23.50;42.20;;;;;;4891540;29;19958;-87
2021/03/11 11:14:27;;;;;;;;;;;23.30;42.90;;;;;;4891086;29;19953;-91
2021/03/11 11:16:53;;;;;;;;;;;23.10;43.20;;;;;;4896721;29;19927;-90
2021/03/11 11:19:20;;;;;;;;;;;22.90;43.40;;;;;;4893050;29;19960;-90
2021/03/11 11:21:46;;;;;;;;;;;22.80;44.30;;;;;;4896857;29;19927;-91
2021/03/11 11:24:13;;;;;;;;;;;22.70;43.80;;;;;;4907690;29;20317;-90
2021/03/11 11:26:39;;;;;;;;;;;22.60;43.90;;;;;;4896652;29;19934;-90
2021/03/11 11:29:05;;;;;;;;;;;22.50;43.90;;;;;;4889234;29;19927;-89
2021/03/11 11:31:35;;;;;;;;;;;22.50;44.30;;;;;;4926725;29;20332;-90
2021/03/11 11:34:02;;;;;;;;;;;22.40;44.30;;;;;;4889922;29;19935;-89
2021/03/11 11:36:28;;;;;;;;;;;22.40;44.40;;;;;;4896450;29;19927;-88
2021/03/11 11:38:54;;;;;;;;;;;22.30;45.20;;;;;;4926702;29;20054;-88
2021/03/11 11:41:21;;;;;;;;;;;22.20;44.70;;;;;;4891715;29;19915;-90
2021/03/11 11:43:47;;;;;;;;;;;22.10;44.90;;;;;;4896903;29;19935;-92
2021/03/11 11:46:14;;;;;;;;;;;22.00;44.80;;;;;;4893709;29;20018;-92
2021/03/11 11:48:40;;;;;;;;;;;22.00;44.90;;;;;;4924274;29;20328;-86
2021/03/11 11:51:06;;;;;;;;;;;21.90;45.00;;;;;;4888218;29;19935;-86
2021/03/11 11:53:33;;;;;;;;;;;21.80;45.10;;;;;;4894190;29;21289;-85
2021/03/11 11:56:00;;;;;;;;;;;21.90;47.10;;;;;;4876737;29;19967;-87
2021/03/11 11:58:26;;;;;;;;;;;22.10;46.90;;;;;;4888937;29;19966;-86
2021/03/11 12:00:53;;;;;;;;;;;22.30;46.40;;;;;;4884098;29;19923;-91
2021/03/11 12:03:19;;;;;;;;;;;22.40;46.90;;;;;;4889228;29;19939;-92
2021/03/11 12:05:46;;;;;;;;;;;22.40;46.80;;;;;;4921280;29;20002;-92
2021/03/11 12:08:12;;;;;;;;;;;22.50;46.80;;;;;;4897843;29;19928;-94
2021/03/11 12:10:41;;;;;;;;;;;22.60;46.80;;;;;;4924107;29;19975;-90
2021/03/11 12:13:08;;;;;;;;;;;22.60;46.50;;;;;;4895827;29;19936;-87
2021/03/11 12:15:34;;;;;;;;;;;22.70;47.10;;;;;;4894715;29;19938;-88
2021/03/11 12:18:01;;;;;;;;;;;22.70;46.60;;;;;;4900049;29;20411;-87
2021/03/11 12:20:34;;;;;;;;;;;22.70;46.00;;;;;;4885851;29;19928;-86
2021/03/11 12:23:01;;;;;;;;;;;22.80;45.90;;;;;;4898700;29;19946;-93
2021/03/11 12:25:27;;;;;;;;;;;22.80;45.90;;;;;;4863297;29;19938;-90
2021/03/11 12:27:54;;;;;;;;;;;22.90;45.80;;;;;;4872974;29;20030;-90
2021/03/11 12:30:22;;;;;;;;;;;22.90;46.00;;;;;;4876015;29;19932;-92
2021/03/11 12:32:50;;;;;;;;;;;23.00;46.00;;;;;;4876645;29;19931;-93
2021/03/11 12:35:16;;;;;;;;;;;23.00;46.20;;;;;;4878148;29;19939;-86
2021/03/11 12:37:44;;;;;;;;;;;23.00;46.10;;;;;;4867874;29;20141;-86
2021/03/11 12:40:10;;;;;;;;;;;23.00;45.90;;;;;;4876166;29;19932;-85
2021/03/11 12:42:37;;;;;;;;;;;23.00;45.70;;;;;;4868275;29;19936;-85
2021/03/11 12:45:04;;;;;;;;;;;23.00;45.80;;;;;;4870407;29;19939;-87
2021/03/11 12:47:30;;;;;;;;;;;23.00;45.80;;;;;;4867933;29;19939;-86
2021/03/11 12:49:57;;;;;;;;;;;23.00;46.00;;;;;;4871343;29;19936;-87
2021/03/11 12:52:23;;;;;;;;;;;23.10;45.90;;;;;;4864661;29;19974;-84
2021/03/11 12:54:50;;;;;;;;;;;23.10;45.90;;;;;;4872864;29;19959;-86
2021/03/11 12:57:17;;;;;;;;;;;23.10;46.20;;;;;;4898591;29;20439;-85
2021/03/11 12:59:43;;;;;;;;;;;23.00;45.70;;;;;;4873255;29;20038;-84
2021/03/11 13:02:09;;;;;;;;;;;23.00;46.00;;;;;;4876089;29;20471;-89
2021/03/11 13:04:35;;;;;;;;;;;23.10;46.60;;;;;;4867501;29;19916;-87
2021/03/11 13:07:04;;;;;;;;;;;23.10;46.40;;;;;;4873428;29;19971;-88
2021/03/11 13:09:33;;;;;;;;;;;23.10;46.50;;;;;;4863096;29;20026;-83
2021/03/11 13:12:00;;;;;;;;;;;23.10;46.00;;;;;;4875242;29;19934;-85
2021/03/11 13:14:26;;;;;;;;;;;23.00;46.70;;;;;;4867933;29;20315;-86
2021/03/11 13:16:53;;;;;;;;;;;23.10;46.00;;;;;;4877166;29;20301;-85
2021/03/11 13:19:19;;;;;;;;;;;22.50;44.10;;;;;;4869444;29;20408;-85
2021/03/11 13:21:46;;;;;;;;;;;22.20;44.80;;;;;;4907103;29;19968;-89
2021/03/11 13:24:12;;;;;;;;;;;22.10;45.80;;;;;;4906766;29;19927;-86
2021/03/11 13:26:38;;;;;;;;;;;22.20;47.10;;;;;;4899057;29;20026;-88
2021/03/11 13:29:05;;;;;;;;;;;22.40;46.50;;;;;;4904536;29;20395;-84
2021/03/11 13:31:32;;;;;;;;;;;22.50;46.80;;;;;;4910810;29;20182;-85
2021/03/11 13:34:00;;;;;;;;;;;22.60;47.10;;;;;;4906440;29;19983;-85
2021/03/11 13:36:26;;;;;;;;;;;22.60;47.10;;;;;;4897346;29;19933;-85
2021/03/11 13:38:52;;;;;;;;;;;22.70;47.00;;;;;;4909059;29;19978;-90
2021/03/11 13:41:19;;;;;;;;;;;22.70;47.20;;;;;;4901909;29;20371;-91
2021/03/11 13:43:45;;;;;;;;;;;22.80;47.00;;;;;;4898949;29;20358;-92
2021/03/11 13:46:11;;;;;;;;;;;22.80;46.50;;;;;;4893237;29;19923;-89
2021/03/11 13:48:38;;;;;;;;;;;22.80;46.90;;;;;;4883031;29;19942;-91
2021/03/11 13:51:06;;;;;;;;;;;22.80;46.80;;;;;;4904588;29;19932;-91
2021/03/11 13:53:33;;;;;;;;;;;22.80;46.60;;;;;;4893520;29;19927;-91
2021/03/11 13:56:01;;;;;;;;;;;22.80;46.60;;;;;;4896275;29;19935;-92
2021/03/11 13:58:27;;;;;;;;;;;22.80;46.20;;;;;;4897745;29;20463;-90
2021/03/11 14:00:56;;;;;;;;;;;22.80;46.40;;;;;;4898333;29;19926;-91
2021/03/11 14:03:24;;;;;;;;;;;22.80;46.70;;;;;;4890846;29;20226;-93
2021/03/11 14:05:51;;;;;;;;;;;22.80;47.30;;;;;;4889366;29;20183;-91
2021/03/11 14:08:17;;;;;;;;;;;22.90;46.60;;;;;;4913459;29;19944;-88
2021/03/11 14:10:43;;;;;;;;;;;22.90;47.10;;;;;;4891215;29;19927;-86
2021/03/11 14:13:10;;;;;;;;;;;22.90;46.70;;;;;;4911274;29;20005;-86
2021/03/11 14:15:36;;;;;;;;;;;22.90;46.30;;;;;;4903867;29;21677;-84
2021/03/11 14:18:03;;;;;;;;;;;23.00;46.70;;;;;;4909211;28;19965;-87
2021/03/11 14:20:29;;;;;;;;;;;23.00;46.70;;;;;;4924493;29;19952;-93
2021/03/11 14:22:56;;;;;;;;;;;23.00;47.10;;;;;;4889804;29;20439;-90
2021/03/11 14:25:23;;;;;;;;;;;23.00;46.50;;;;;;4903154;29;20044;-93